Elsmere, Delaware
Current Conditions -  °F | °C
As of 2:51 PM on Friday 28 Nov 2014 (Local Time) from KILG Reporting Station
Few Clouds Few Clouds  
Wind Chill: 27°   Ceiling: Unl
Heat Index: 37°   Visibility: 10mi
Dew Point: 14°   Wind: 17mph
Humidity: 39%   Direction: 310°NW
Pressure: 30.24"   Gusts: 30mph
Location:  39.7454°N, 75.5936°W
Report Text: KILG 281951Z 31015G26KT 10SM FEW050 03/M10 A3024 RMK AO2 PK WND 32026/1946 SLP239 T00281100
Loading
Personal Weather Stations






























Interactive Weather Map New forecast layout! Learn more

10-Day Weather Forecast

Advertisements
Track Severe Weather on mobile